Time;durP1;ratioP1;P1;durP2;ratioP2;P2;SDS_P1;SDS_P2;PMS_P1;PMS_P2;Temp;Humidity;BMP_temperature;BMP_pressure;BME280_temperature;BME280_humidity;BME280_pressure;Samples;Min_cycle;Max_cycle;Signal;HPM_P1;HPM_P2
2023/06/09 00:01:44;;;;;;;5.10;4.60;;;24.60;60.50;;;;;;4915818;29;20208;-85
2023/06/09 00:04:13;;;;;;;5.57;5.07;;;24.60;60.50;;;;;;4928795;29;20176;-85
2023/06/09 00:06:39;;;;;;;6.63;5.10;;;24.60;60.60;;;;;;4916976;29;20181;-85
2023/06/09 00:09:07;;;;;;;5.23;4.70;;;24.50;60.70;;;;;;4929179;29;20195;-85
2023/06/09 00:11:35;;;;;;;5.47;4.50;;;24.50;60.70;;;;;;4917714;29;20184;-85
2023/06/09 00:14:01;;;;;;;6.40;4.57;;;24.50;60.90;;;;;;4928549;29;20568;-85
2023/06/09 00:16:28;;;;;;;5.50;4.87;;;24.50;61.00;;;;;;4916921;29;20204;-85
2023/06/09 00:18:57;;;;;;;6.07;4.80;;;24.50;61.20;;;;;;4923987;29;20183;-85
2023/06/09 00:21:25;;;;;;;5.63;4.77;;;24.50;61.30;;;;;;4918442;29;20291;-85
2023/06/09 00:23:55;;;;;;;5.00;4.50;;;24.40;61.20;;;;;;4921681;29;20474;-85
2023/06/09 00:26:21;;;;;;;5.60;5.10;;;24.40;61.40;;;;;;4921493;29;20183;-86
2023/06/09 00:28:47;;;;;;;5.47;4.83;;;24.40;61.50;;;;;;4921376;29;20267;-85
2023/06/09 00:31:13;;;;;;;5.03;4.63;;;24.40;61.60;;;;;;4922597;29;20176;-85
2023/06/09 00:33:39;;;;;;;5.47;4.97;;;24.40;61.80;;;;;;4919665;29;20626;-85
2023/06/09 00:36:05;;;;;;;5.10;4.60;;;24.40;61.90;;;;;;4926309;29;20638;-85
2023/06/09 00:38:31;;;;;;;5.70;5.20;;;24.30;61.80;;;;;;4919890;29;20178;-85
2023/06/09 00:40:57;;;;;;;5.53;4.97;;;24.30;62.00;;;;;;4926002;29;20183;-85
2023/06/09 00:43:22;;;;;;;5.53;4.90;;;24.30;62.20;;;;;;4934767;29;20171;-85
2023/06/09 00:45:48;;;;;;;6.03;5.03;;;24.20;62.70;;;;;;4939953;29;20483;-85
2023/06/09 00:48:15;;;;;;;5.70;5.17;;;24.10;62.70;;;;;;4936138;29;20231;-85
2023/06/09 00:50:41;;;;;;;5.30;4.80;;;24.10;62.80;;;;;;4924507;29;20185;-85
2023/06/09 00:53:09;;;;;;;4.90;4.40;;;24.10;62.80;;;;;;4935876;29;20304;-85
2023/06/09 00:55:38;;;;;;;5.20;4.70;;;24.10;62.80;;;;;;4921417;29;20180;-85
2023/06/09 00:58:04;;;;;;;4.90;4.50;;;24.10;62.80;;;;;;4934618;29;20387;-85
2023/06/09 01:00:31;;;;;;;6.17;5.53;;;24.10;62.80;;;;;;4925203;29;20171;-84
2023/06/09 01:03:00;;;;;;;5.37;4.87;;;24.10;62.90;;;;;;4932780;29;20206;-85
2023/06/09 01:05:39;;;;;;;5.43;4.93;;;24.10;63.20;;;;;;4924172;29;20450;-85
2023/06/09 01:08:09;;;;;;;5.50;4.70;;;24.00;63.50;;;;;;4932228;29;20218;-85
2023/06/09 01:11:00;;;;;;;5.60;5.03;;;24.00;63.60;;;;;;4925758;29;20176;-85
2023/06/09 01:13:38;;;;;;;5.10;4.70;;;24.10;63.50;;;;;;4932422;29;20190;-85
2023/06/09 01:16:10;;;;;;;5.67;4.93;;;24.00;63.60;;;;;;4924448;29;20402;-85
2023/06/09 01:18:36;;;;;;;5.47;5.00;;;24.00;63.70;;;;;;4933801;29;20290;-85
2023/06/09 01:21:22;;;;;;;5.40;4.90;;;24.00;63.70;;;;;;4925389;29;20182;-85
2023/06/09 01:23:58;;;;;;;6.43;4.80;;;24.00;63.70;;;;;;4934932;29;20183;-85
2023/06/09 01:26:25;;;;;;;5.63;5.13;;;24.00;63.70;;;;;;4931665;29;20184;-85
2023/06/09 01:28:52;;;;;;;5.33;4.83;;;24.00;64.40;;;;;;4934365;29;20183;-85
2023/06/09 01:31:18;;;;;;;6.63;5.13;;;24.00;63.80;;;;;;4932013;29;20187;-85
2023/06/09 01:33:44;;;;;;;5.70;5.20;;;24.00;63.90;;;;;;4921474;29;20358;-85
2023/06/09 01:36:11;;;;;;;6.40;5.23;;;24.00;63.90;;;;;;4937567;29;20207;-85
2023/06/09 01:38:38;;;;;;;5.93;5.33;;;23.90;64.10;;;;;;4922473;29;20208;-85
2023/06/09 01:41:04;;;;;;;5.80;5.27;;;23.90;64.20;;;;;;4919734;29;20191;-85
2023/06/09 01:43:29;;;;;;;5.70;5.20;;;23.80;64.30;;;;;;4926812;29;20177;-85
2023/06/09 01:45:55;;;;;;;6.13;5.20;;;23.80;64.50;;;;;;4949218;29;20169;-85
2023/06/09 01:48:24;;;;;;;6.37;5.27;;;23.80;64.50;;;;;;4923801;29;20250;-85
2023/06/09 01:51:06;;;;;;;6.00;5.40;;;23.80;64.50;;;;;;4933413;29;20182;-85
2023/06/09 01:53:43;;;;;;;6.17;5.57;;;23.80;64.50;;;;;;4925132;29;20179;-85
2023/06/09 01:56:21;;;;;;;6.40;5.57;;;23.80;64.50;;;;;;4936758;29;20204;-84
2023/06/09 01:58:51;;;;;;;6.27;5.60;;;23.80;64.50;;;;;;4919418;29;20169;-84
2023/06/09 02:01:19;;;;;;;5.80;5.20;;;23.80;64.50;;;;;;4937647;29;20239;-84
2023/06/09 02:03:49;;;;;;;5.90;4.87;;;23.70;64.40;;;;;;4931404;29;20194;-85
2023/06/09 02:06:19;;;;;;;5.60;5.10;;;23.70;64.40;;;;;;4921453;29;20462;-85
2023/06/09 02:08:44;;;;;;;6.07;5.27;;;23.70;64.40;;;;;;4929722;29;20227;-85
2023/06/09 02:11:11;;;;;;;6.10;5.50;;;23.70;64.50;;;;;;4918353;29;20295;-84
2023/06/09 02:13:37;;;;;;;6.00;5.23;;;23.70;64.50;;;;;;4930098;29;20512;-85
2023/06/09 02:16:03;;;;;;;6.13;5.50;;;23.70;64.60;;;;;;4918811;29;20177;-85
2023/06/09 02:18:29;;;;;;;6.07;5.03;;;23.70;64.70;;;;;;4929790;29;20389;-85
2023/06/09 02:20:55;;;;;;;5.60;5.10;;;23.70;64.70;;;;;;4917307;29;20572;-85
2023/06/09 02:23:22;;;;;;;5.73;5.03;;;23.70;64.80;;;;;;4928466;29;20179;-85
2023/06/09 02:25:48;;;;;;;5.87;5.27;;;23.60;64.80;;;;;;4918908;29;20177;-85
2023/06/09 02:28:16;;;;;;;5.60;5.10;;;23.60;64.90;;;;;;4924106;29;20191;-85
2023/06/09 02:30:42;;;;;;;5.73;5.23;;;23.60;65.00;;;;;;4936138;29;20444;-85
2023/06/09 02:33:08;;;;;;;6.40;5.53;;;23.60;65.20;;;;;;4923609;29;20641;-85
2023/06/09 02:35:34;;;;;;;6.60;5.63;;;23.60;65.30;;;;;;4924050;29;20852;-85
2023/06/09 02:38:05;;;;;;;5.97;5.37;;;23.50;65.60;;;;;;4923654;29;20216;-85
2023/06/09 02:40:32;;;;;;;6.20;5.57;;;23.50;65.70;;;;;;4925959;29;20188;-85
2023/06/09 02:42:58;;;;;;;6.60;5.60;;;23.50;65.80;;;;;;4921229;29;20618;-85
2023/06/09 02:45:25;;;;;;;8.60;5.70;;;23.40;65.90;;;;;;4927713;29;20180;-85
2023/06/09 02:47:51;;;;;;;6.60;6.00;;;23.40;65.90;;;;;;4918492;29;20459;-85
2023/06/09 02:50:17;;;;;;;5.97;5.37;;;23.40;65.90;;;;;;4928761;29;20553;-85
2023/06/09 02:52:44;;;;;;;6.03;5.43;;;23.40;66.00;;;;;;4919562;29;20268;-85
2023/06/09 02:55:11;;;;;;;9.07;5.60;;;23.40;65.90;;;;;;4926265;29;20177;-84
2023/06/09 02:57:36;;;;;;;6.90;5.43;;;23.40;65.80;;;;;;4918513;29;20279;-85
2023/06/09 03:00:04;;;;;;;5.77;5.27;;;23.40;65.90;;;;;;4931234;29;20214;-85
2023/06/09 03:02:30;;;;;;;5.63;5.13;;;23.40;66.00;;;;;;4903114;29;20181;-85
2023/06/09 03:04:56;;;;;;;5.63;5.13;;;23.40;65.90;;;;;;4929153;29;20335;-85
2023/06/09 03:07:22;;;;;;;5.87;5.27;;;23.40;65.90;;;;;;4932567;29;20565;-85
2023/06/09 03:09:48;;;;;;;5.40;4.90;;;23.40;66.00;;;;;;4942168;29;20192;-85
2023/06/09 03:12:14;;;;;;;6.33;5.43;;;23.30;66.00;;;;;;4934648;29;20584;-85
2023/06/09 03:14:40;;;;;;;7.53;5.37;;;23.30;66.10;;;;;;4934667;29;20252;-85
2023/06/09 03:17:06;;;;;;;6.33;5.20;;;23.30;66.90;;;;;;4919802;29;20214;-85
2023/06/09 03:19:32;;;;;;;5.87;5.27;;;23.30;66.30;;;;;;4923890;29;20172;-85
2023/06/09 03:21:58;;;;;;;6.00;5.43;;;23.30;66.30;;;;;;4924313;29;20171;-85
2023/06/09 03:24:25;;;;;;;5.33;4.83;;;23.30;66.40;;;;;;4920067;29;20397;-85
2023/06/09 03:26:52;;;;;;;7.57;5.37;;;23.30;66.50;;;;;;4927041;29;20179;-85
2023/06/09 03:29:19;;;;;;;5.67;5.13;;;23.20;66.50;;;;;;4918345;29;20177;-85
2023/06/09 03:31:44;;;;;;;6.23;5.47;;;23.20;66.60;;;;;;4927575;29;20195;-85
2023/06/09 03:34:10;;;;;;;8.03;5.37;;;23.20;66.60;;;;;;4918074;29;20277;-85
2023/06/09 03:36:35;;;;;;;6.17;5.57;;;23.20;66.70;;;;;;4926895;29;20239;-85
2023/06/09 03:39:02;;;;;;;5.90;5.30;;;23.20;66.80;;;;;;4916608;29;20204;-85
2023/06/09 03:41:28;;;;;;;5.80;5.17;;;23.20;66.90;;;;;;4920324;29;20172;-85
2023/06/09 03:43:54;;;;;;;6.20;5.60;;;23.20;66.90;;;;;;4934861;29;20568;-85
2023/06/09 03:46:20;;;;;;;5.93;5.43;;;23.20;67.10;;;;;;4921904;29;20230;-85
2023/06/09 03:48:46;;;;;;;5.93;5.27;;;23.10;67.10;;;;;;4934807;29;20176;-85
2023/06/09 03:51:12;;;;;;;6.60;5.27;;;23.10;67.20;;;;;;4924748;29;20191;-85
2023/06/09 03:53:38;;;;;;;5.97;5.37;;;23.10;67.10;;;;;;4932986;29;20277;-85
2023/06/09 03:56:04;;;;;;;6.53;5.23;;;23.10;67.80;;;;;;4926524;29;20559;-85
2023/06/09 03:58:29;;;;;;;5.93;5.37;;;23.10;67.20;;;;;;4932015;29;20172;-85
2023/06/09 04:00:56;;;;;;;5.70;5.20;;;23.10;67.20;;;;;;4930364;29;20282;-85
2023/06/09 04:03:22;;;;;;;5.27;4.87;;;23.10;67.30;;;;;;4929260;29;20526;-85
2023/06/09 04:05:49;;;;;;;5.60;5.10;;;23.10;67.20;;;;;;4928775;29;20180;-85
2023/06/09 04:08:14;;;;;;;5.90;5.30;;;23.10;67.30;;;;;;4922149;29;20443;-85
2023/06/09 04:10:42;;;;;;;6.10;5.50;;;23.20;67.30;;;;;;4915522;29;20381;-85
2023/06/09 04:13:09;;;;;;;5.70;5.20;;;23.10;67.20;;;;;;4925038;29;20455;-84
2023/06/09 04:15:35;;;;;;;5.73;5.23;;;23.20;67.20;;;;;;4914935;29;20184;-85
2023/06/09 04:18:01;;;;;;;5.27;4.87;;;23.10;67.20;;;;;;4944965;28;20204;-85
2023/06/09 04:20:27;;;;;;;5.47;4.97;;;23.10;67.40;;;;;;4933664;29;20169;-85
2023/06/09 04:22:53;;;;;;;6.07;5.47;;;23.20;67.30;;;;;;4920324;29;20164;-85
2023/06/09 04:25:25;;;;;;;5.50;4.87;;;23.20;67.20;;;;;;4934196;29;20185;-85
2023/06/09 04:27:55;;;;;;;6.20;5.57;;;23.20;67.30;;;;;;4936751;29;20189;-85
2023/06/09 04:30:25;;;;;;;5.30;4.80;;;23.20;67.40;;;;;;4933208;29;20184;-85
2023/06/09 04:32:55;;;;;;;5.90;5.40;;;23.20;67.30;;;;;;4920540;29;20199;-85
2023/06/09 04:35:22;;;;;;;5.33;4.83;;;23.20;67.20;;;;;;4932003;29;20182;-85
2023/06/09 04:37:49;;;;;;;5.57;5.07;;;23.20;67.10;;;;;;4920622;29;20228;-85
2023/06/09 04:40:21;;;;;;;5.63;4.80;;;23.20;67.20;;;;;;4925627;29;20236;-84
2023/06/09 04:42:51;;;;;;;4.63;4.23;;;23.20;67.10;;;;;;4916005;29;20567;-85
2023/06/09 04:45:18;;;;;;;5.60;5.10;;;23.30;67.20;;;;;;4929181;29;20455;-85
2023/06/09 04:47:46;;;;;;;5.23;4.73;;;23.30;66.90;;;;;;4922349;29;20190;-85
2023/06/09 04:50:12;;;;;;;5.60;5.10;;;23.40;67.00;;;;;;4927871;29;20183;-85
2023/06/09 04:52:39;;;;;;;5.43;4.93;;;23.40;66.80;;;;;;4926039;29;20184;-85
2023/06/09 04:55:06;;;;;;;5.53;5.00;;;23.40;66.70;;;;;;4939621;29;20176;-85
2023/06/09 04:57:31;;;;;;;5.97;5.13;;;23.40;66.60;;;;;;4928066;29;20211;-85
2023/06/09 05:00:03;;;;;;;5.37;4.97;;;23.40;66.50;;;;;;4924785;29;20254;-85
2023/06/09 05:02:44;;;;;;;6.03;4.90;;;23.50;66.70;;;;;;4920414;29;20508;-85
2023/06/09 05:05:11;;;;;;;5.47;5.03;;;23.50;66.40;;;;;;4914326;29;20169;-85
2023/06/09 05:07:39;;;;;;;5.27;4.73;;;23.50;66.30;;;;;;4910503;29;20190;-85
2023/06/09 05:10:09;;;;;;;5.30;4.80;;;23.60;66.20;;;;;;4924592;29;20191;-85
2023/06/09 05:12:39;;;;;;;5.97;5.37;;;23.60;66.10;;;;;;4910336;29;20552;-85
2023/06/09 05:15:05;;;;;;;5.83;5.20;;;23.70;65.90;;;;;;4909644;29;20188;-85
2023/06/09 05:17:33;;;;;;;6.17;5.07;;;23.70;65.90;;;;;;4909203;29;20576;-85
2023/06/09 05:19:59;;;;;;;6.17;5.57;;;23.70;65.60;;;;;;4908717;29;20169;-85
2023/06/09 05:22:25;;;;;;;6.57;5.43;;;23.80;65.60;;;;;;4911057;29;20175;-85
2023/06/09 05:24:51;;;;;;;5.60;5.10;;;23.80;65.40;;;;;;4910745;29;20179;-85
2023/06/09 05:27:17;;;;;;;6.57;5.97;;;23.90;65.30;;;;;;4909798;29;20265;-85
2023/06/09 05:29:43;;;;;;;5.53;5.03;;;24.00;65.30;;;;;;4911878;29;20298;-85
2023/06/09 05:32:09;;;;;;;5.53;5.03;;;24.00;64.70;;;;;;4929541;29;20352;-85
2023/06/09 05:34:35;;;;;;;6.23;5.10;;;24.00;65.00;;;;;;4914121;29;20309;-85
2023/06/09 05:37:02;;;;;;;5.20;4.70;;;24.00;64.90;;;;;;4912826;29;20288;-86
2023/06/09 05:39:27;;;;;;;5.40;4.90;;;24.10;63.60;;;;;;4913349;29;20176;-85
2023/06/09 05:41:54;;;;;;;5.57;4.63;;;24.10;63.30;;;;;;4911130;29;20208;-85
2023/06/09 05:44:19;;;;;;;4.83;4.43;;;24.20;63.10;;;;;;4927492;29;20211;-85
2023/06/09 05:46:45;;;;;;;5.30;4.90;;;24.20;62.80;;;;;;4929443;29;20461;-86
2023/06/09 05:49:11;;;;;;;4.90;4.40;;;24.30;62.40;;;;;;4913197;29;20455;-86
2023/06/09 05:51:37;;;;;;;5.57;5.03;;;24.40;62.00;;;;;;4911901;29;20577;-85
2023/06/09 05:54:03;;;;;;;5.33;4.90;;;24.50;61.80;;;;;;4913936;29;20183;-86
2023/06/09 05:56:29;;;;;;;5.07;4.57;;;24.50;61.60;;;;;;4910158;29;20458;-86
2023/06/09 05:59:03;;;;;;;5.03;4.53;;;24.60;61.10;;;;;;4914159;29;20245;-85
2023/06/09 06:01:35;;;;;;;7.23;6.20;;;24.80;60.80;;;;;;4911762;29;20176;-86
2023/06/09 06:04:01;;;;;;;5.77;5.27;;;24.90;63.20;;;;;;4913382;29;20177;-85
2023/06/09 06:06:26;;;;;;;5.53;4.80;;;24.90;61.30;;;;;;4916337;29;20184;-85
2023/06/09 06:08:52;;;;;;;4.77;4.37;;;25.00;60.50;;;;;;4914231;29;20659;-85
2023/06/09 06:11:18;;;;;;;6.00;4.90;;;25.10;60.20;;;;;;4912893;29;20464;-86
2023/06/09 06:13:44;;;;;;;6.00;4.83;;;25.20;60.00;;;;;;4912580;29;20236;-85
2023/06/09 06:16:09;;;;;;;5.03;4.50;;;25.30;59.70;;;;;;4912271;29;20219;-85
2023/06/09 06:18:35;;;;;;;5.27;4.73;;;25.40;59.40;;;;;;4911699;29;20479;-85
2023/06/09 06:21:01;;;;;;;4.87;4.47;;;25.60;59.20;;;;;;4913807;29;20218;-86
2023/06/09 06:23:27;;;;;;;4.87;4.40;;;25.70;59.30;;;;;;4928536;29;20443;-86
2023/06/09 06:25:53;;;;;;;5.00;4.60;;;25.80;58.80;;;;;;4913690;29;20434;-86
2023/06/09 06:28:19;;;;;;;5.10;4.70;;;26.00;58.70;;;;;;4912258;29;20526;-86
2023/06/09 06:30:45;;;;;;;5.23;4.80;;;26.20;58.30;;;;;;4928397;29;20482;-86
2023/06/09 06:33:11;;;;;;;4.90;4.50;;;26.30;58.00;;;;;;4911124;29;20252;-85
2023/06/09 06:35:37;;;;;;;5.30;4.40;;;26.40;57.70;;;;;;4912188;29;20181;-86
2023/06/09 06:38:02;;;;;;;5.07;4.60;;;26.60;57.50;;;;;;4928908;29;20209;-86
2023/06/09 06:40:29;;;;;;;5.17;4.67;;;26.80;57.30;;;;;;4911509;29;20279;-85
2023/06/09 06:42:55;;;;;;;5.83;4.90;;;26.90;57.00;;;;;;4909726;29;20173;-85
2023/06/09 06:45:21;;;;;;;5.77;5.13;;;27.00;56.80;;;;;;4911461;29;20173;-85
2023/06/09 06:47:49;;;;;;;5.60;5.10;;;27.00;56.70;;;;;;4927144;29;20292;-86
2023/06/09 06:50:15;;;;;;;5.30;4.80;;;27.20;56.80;;;;;;4928942;29;20188;-86
2023/06/09 06:52:41;;;;;;;6.10;5.07;;;27.30;56.60;;;;;;4912259;29;20181;-86
2023/06/09 06:55:08;;;;;;;5.40;4.90;;;27.50;56.50;;;;;;4912422;29;20244;-86
2023/06/09 06:57:38;;;;;;;7.27;5.30;;;27.60;56.10;;;;;;4913796;29;20384;-86
2023/06/09 07:00:14;;;;;;;5.80;5.20;;;27.80;56.00;;;;;;4913045;29;20180;-86
2023/06/09 07:02:47;;;;;;;5.67;5.10;;;28.00;56.00;;;;;;4915449;29;20186;-86
2023/06/09 07:05:13;;;;;;;7.00;5.60;;;28.20;55.70;;;;;;4915813;29;20192;-86
2023/06/09 07:07:39;;;;;;;5.50;5.00;;;28.50;55.40;;;;;;4913871;29;20185;-86
2023/06/09 07:10:08;;;;;;;7.13;5.60;;;28.80;54.60;;;;;;4913269;29;20181;-86
2023/06/09 07:12:34;;;;;;;6.30;5.50;;;29.20;54.00;;;;;;4929743;29;20185;-86
2023/06/09 07:15:00;;;;;;;7.27;5.20;;;29.50;53.50;;;;;;4910077;29;20609;-86
2023/06/09 07:17:26;;;;;;;7.23;5.80;;;29.90;53.10;;;;;;4912206;29;20213;-86
2023/06/09 07:19:51;;;;;;;6.17;5.57;;;30.10;52.50;;;;;;4909745;29;20203;-86
2023/06/09 07:22:17;;;;;;;6.47;5.53;;;30.30;52.10;;;;;;4912204;29;20181;-86
2023/06/09 07:24:43;;;;;;;12.97;6.47;;;30.70;51.80;;;;;;4929233;29;20274;-87
2023/06/09 07:27:09;;;;;;;10.20;6.27;;;30.60;52.80;;;;;;4898464;29;20181;-87
2023/06/09 07:29:35;;;;;;;13.53;7.00;;;30.90;52.30;;;;;;4913637;29;20393;-86
2023/06/09 07:32:04;;;;;;;9.90;6.47;;;31.00;52.00;;;;;;4910734;29;20181;-86
2023/06/09 07:34:31;;;;;;;9.23;6.40;;;31.50;51.60;;;;;;4912260;29;20184;-86
2023/06/09 07:36:59;;;;;;;8.95;6.32;;;31.60;52.20;;;;;;4908219;29;20208;-86
2023/06/09 07:39:28;;;;;;;7.28;6.03;;;31.60;51.30;;;;;;4909808;29;20507;-86
2023/06/09 07:41:54;;;;;;;7.22;6.53;;;31.70;50.80;;;;;;4907681;29;20196;-86
2023/06/09 07:44:20;;;;;;;13.43;6.65;;;32.00;51.30;;;;;;4909635;29;20177;-86
2023/06/09 07:46:46;;;;;;;9.15;6.43;;;32.20;50.40;;;;;;4909714;29;20354;-86
2023/06/09 07:49:13;;;;;;;7.90;6.07;;;32.00;50.60;;;;;;4909411;29;20177;-86
2023/06/09 07:51:41;;;;;;;6.88;6.25;;;32.30;50.10;;;;;;4924840;29;20181;-86
2023/06/09 07:54:07;;;;;;;5.90;5.30;;;32.50;50.00;;;;;;4909331;29;20181;-86
2023/06/09 07:56:34;;;;;;;6.70;5.10;;;32.30;48.90;;;;;;4909605;29;20370;-86
2023/06/09 07:58:59;;;;;;;6.07;5.22;;;32.20;48.20;;;;;;4909863;29;20470;-87
2023/06/09 08:01:25;;;;;;;6.77;5.27;;;32.50;48.50;;;;;;4910748;29;20300;-86
2023/06/09 08:03:51;;;;;;;;;;;31.60;49.00;;;;;;4910318;29;19907;-86
2023/06/09 08:06:17;;;;;;;;;;;31.40;49.60;;;;;;4911861;29;19907;-86
2023/06/09 08:08:43;;;;;;;;;;;32.10;48.70;;;;;;4911768;29;19907;-86
2023/06/09 08:11:09;;;;;;;;;;;32.70;47.90;;;;;;4909245;29;19907;-86
2023/06/09 08:13:35;;;;;;;5.45;4.65;;;32.90;48.00;;;;;;4906756;29;20360;-86
2023/06/09 08:16:01;;;;;;;5.75;5.07;;;33.20;47.20;;;;;;4907767;29;20173;-86
2023/06/09 08:18:26;;;;;;;5.80;4.75;;;31.50;48.30;;;;;;4908195;29;20217;-87
2023/06/09 08:20:52;;;;;;;5.47;5.00;;;31.80;48.30;;;;;;4906708;29;20224;-87
2023/06/09 08:23:22;;;;;;;5.43;4.57;;;32.30;47.80;;;;;;4908078;29;20556;-86
2023/06/09 08:25:48;;;;;;;5.38;4.88;;;32.60;46.90;;;;;;4910064;29;20549;-86
2023/06/09 08:28:14;;;;;;;5.18;4.78;;;31.60;47.50;;;;;;4933196;29;20185;-86
2023/06/09 08:30:40;;;;;;;7.45;4.80;;;31.30;48.00;;;;;;4910055;29;20200;-86
2023/06/09 08:33:06;;;;;;;5.57;4.90;;;31.10;48.50;;;;;;4910092;29;20199;-87
2023/06/09 08:35:32;;;;;;;5.20;4.68;;;32.00;47.60;;;;;;4926741;29;20188;-86
2023/06/09 08:38:01;;;;;;;6.30;4.93;;;32.10;47.50;;;;;;4909661;29;20272;-87
2023/06/09 08:40:27;;;;;;;4.97;4.57;;;31.90;47.00;;;;;;4910423;29;20204;-87
2023/06/09 08:42:58;;;;;;;5.18;4.70;;;30.80;46.80;;;;;;4910636;29;20533;-86
2023/06/09 08:45:25;;;;;;;6.72;4.63;;;30.50;48.20;;;;;;4909692;29;20256;-86
2023/06/09 08:47:55;;;;;;;4.53;4.13;;;29.80;49.10;;;;;;4909045;29;20177;-86
2023/06/09 08:50:25;;;;;;;5.95;4.57;;;29.90;49.20;;;;;;4908969;29;20180;-86
2023/06/09 08:52:55;;;;;;;5.70;4.95;;;30.10;49.30;;;;;;4911151;29;20184;-87
2023/06/09 08:55:21;;;;;;;5.07;4.68;;;29.00;49.60;;;;;;4908653;29;20181;-86
2023/06/09 08:57:48;;;;;;;4.75;4.35;;;29.60;49.40;;;;;;4908858;29;20243;-86
2023/06/09 09:00:15;;;;;;;6.22;4.20;;;29.70;48.70;;;;;;4906933;29;20340;-87
2023/06/09 09:02:43;;;;;;;4.63;4.22;;;29.90;49.60;;;;;;4923244;29;20337;-87
2023/06/09 09:05:12;;;;;;;4.63;4.20;;;30.20;48.80;;;;;;4921876;29;20186;-87
2023/06/09 09:07:42;;;;;;;5.40;4.68;;;30.50;49.10;;;;;;4905343;29;20177;-86
2023/06/09 09:10:07;;;;;;;4.80;4.40;;;30.40;49.40;;;;;;4905703;29;20746;-87
2023/06/09 09:12:51;;;;;;;5.20;4.72;;;30.70;48.30;;;;;;4903478;29;20185;-86
2023/06/09 09:15:17;;;;;;;4.93;4.35;;;30.90;49.00;;;;;;4905881;29;20329;-86
2023/06/09 09:17:47;;;;;;;4.75;4.25;;;31.10;48.80;;;;;;4906481;29;20239;-86
2023/06/09 09:20:14;;;;;;;4.55;4.15;;;31.50;48.70;;;;;;4903824;29;20280;-86
2023/06/09 09:22:48;;;;;;;4.70;4.30;;;31.70;48.20;;;;;;4918953;29;20240;-86
2023/06/09 09:25:25;;;;;;;4.78;4.30;;;31.70;48.00;;;;;;4904775;29;20424;-87
2023/06/09 09:28:01;;;;;;;4.78;4.30;;;31.90;47.60;;;;;;4904968;29;20677;-86
2023/06/09 09:30:47;;;;;;;5.05;4.47;;;31.70;47.10;;;;;;4924757;29;20203;-87
2023/06/09 09:33:26;;;;;;;4.85;4.20;;;31.60;47.00;;;;;;4921084;29;20193;-85
2023/06/09 09:35:58;;;;;;;4.35;3.95;;;31.60;47.40;;;;;;4905355;29;20177;-85
2023/06/09 09:38:27;;;;;;;4.65;4.25;;;31.60;47.60;;;;;;4906076;29;20216;-85
2023/06/09 09:40:59;;;;;;;4.72;4.30;;;31.50;46.90;;;;;;4904276;29;20197;-86
2023/06/09 09:43:33;;;;;;;5.40;3.90;;;31.40;46.00;;;;;;4906904;29;20170;-85
2023/06/09 09:46:05;;;;;;;4.55;4.15;;;31.50;46.30;;;;;;4906441;29;20249;-85
2023/06/09 09:48:30;;;;;;;4.05;3.75;;;31.60;47.30;;;;;;4907290;29;20519;-86
2023/06/09 09:50:57;;;;;;;4.72;4.10;;;31.60;46.30;;;;;;4905295;29;20177;-86
2023/06/09 09:53:27;;;;;;;4.97;3.95;;;31.50;45.80;;;;;;4906125;29;20165;-86
2023/06/09 09:55:55;;;;;;;5.88;3.85;;;31.30;45.10;;;;;;4902762;29;20177;-86
2023/06/09 09:58:36;;;;;;;5.10;4.28;;;31.40;45.00;;;;;;4907116;29;20299;-86
2023/06/09 10:01:10;;;;;;;4.80;4.30;;;31.10;45.10;;;;;;4904409;29;20549;-86
2023/06/09 10:03:41;;;;;;;4.50;4.10;;;31.20;47.00;;;;;;4902969;29;20173;-86
2023/06/09 10:06:11;;;;;;;4.10;3.70;;;31.10;47.10;;;;;;4903189;29;20700;-86
2023/06/09 10:08:40;;;;;;;4.22;3.88;;;31.10;47.30;;;;;;4903276;29;20750;-86
2023/06/09 10:11:07;;;;;;;4.68;3.92;;;31.00;47.40;;;;;;4903559;29;20195;-86
2023/06/09 10:13:33;;;;;;;4.72;4.20;;;31.20;46.60;;;;;;4903295;29;20260;-86
2023/06/09 10:15:59;;;;;;;6.47;4.30;;;31.30;45.20;;;;;;4905567;29;20184;-86
2023/06/09 10:18:26;;;;;;;4.72;3.83;;;31.10;46.90;;;;;;4908328;29;20469;-86
2023/06/09 10:20:54;;;;;;;4.90;4.13;;;31.10;47.10;;;;;;4888176;29;20173;-86
2023/06/09 10:23:21;;;;;;;5.00;4.28;;;31.10;45.30;;;;;;4908260;29;20188;-85
2023/06/09 10:25:50;;;;;;;5.47;3.90;;;31.10;45.80;;;;;;4891158;29;20466;-86
2023/06/09 10:28:17;;;;;;;4.95;4.20;;;30.80;45.00;;;;;;4908052;29;20360;-86
2023/06/09 10:30:44;;;;;;;4.80;4.35;;;30.70;46.10;;;;;;4905627;29;20572;-86
2023/06/09 10:33:27;;;;;;;4.28;3.92;;;30.60;47.00;;;;;;4891268;29;20193;-86
2023/06/09 10:35:57;;;;;;;4.75;4.15;;;30.60;47.40;;;;;;4888985;29;20173;-86
2023/06/09 10:38:39;;;;;;;4.38;3.85;;;30.60;45.60;;;;;;4907054;29;20308;-86
2023/06/09 10:41:30;;;;;;;4.15;3.72;;;30.60;47.10;;;;;;4898657;29;20185;-86
2023/06/09 10:44:17;;;;;;;5.65;4.05;;;30.60;46.50;;;;;;4908866;29;20177;-86
2023/06/09 10:46:47;;;;;;;4.00;3.60;;;30.70;46.50;;;;;;4923528;29;20368;-86
2023/06/09 10:49:25;;;;;;;4.88;3.70;;;30.60;46.60;;;;;;4907888;29;20181;-86
2023/06/09 10:51:52;;;;;;;4.28;3.45;;;30.60;46.30;;;;;;4923058;29;20399;-86
2023/06/09 10:54:18;;;;;;;4.20;3.80;;;30.70;45.50;;;;;;4908374;29;20165;-86
2023/06/09 10:57:32;;;;;;;4.65;3.92;;;30.60;45.40;;;;;;4921730;29;20204;-86
2023/06/09 10:59:58;;;;;;;4.55;4.00;;;30.50;46.10;;;;;;4932241;29;20247;-86
2023/06/09 11:02:24;;;;;;;6.25;3.92;;;30.40;47.20;;;;;;4903144;29;20491;-86
2023/06/09 11:04:52;;;;;;;4.60;3.60;;;30.40;47.10;;;;;;4904634;29;20184;-86
2023/06/09 11:07:19;;;;;;;5.40;3.65;;;30.40;47.10;;;;;;4902038;29;20306;-86
2023/06/09 11:09:50;;;;;;;4.35;3.95;;;30.30;47.60;;;;;;4902416;29;20181;-86
2023/06/09 11:12:47;;;;;;;5.03;4.00;;;30.30;45.80;;;;;;4921538;29;20538;-86
2023/06/09 11:15:16;;;;;;;5.35;3.92;;;30.40;46.50;;;;;;4921266;29;20414;-86
2023/06/09 11:17:44;;;;;;;4.28;3.88;;;30.40;46.90;;;;;;4904931;29;20391;-86
2023/06/09 11:20:10;;;;;;;4.38;3.97;;;30.40;46.90;;;;;;4905124;29;20388;-86
2023/06/09 11:22:41;;;;;;;5.57;4.07;;;30.40;46.30;;;;;;4921501;29;20166;-86
2023/06/09 11:25:19;;;;;;;8.35;4.13;;;30.40;46.70;;;;;;4923319;29;20253;-86
2023/06/09 11:27:47;;;;;;;4.30;3.90;;;30.40;47.50;;;;;;4923880;29;20460;-86
2023/06/09 11:30:17;;;;;;;4.43;4.03;;;30.40;46.50;;;;;;4909602;29;20196;-86
2023/06/09 11:33:01;;;;;;;5.10;3.72;;;30.40;45.90;;;;;;4907480;29;20201;-86
2023/06/09 11:35:30;;;;;;;4.45;4.05;;;30.30;47.20;;;;;;4908690;29;20450;-86
2023/06/09 11:38:09;;;;;;;4.43;4.03;;;30.20;47.60;;;;;;4921582;29;20240;-86
2023/06/09 11:40:48;;;;;;;8.05;4.22;;;30.30;46.30;;;;;;4905261;29;20248;-86
2023/06/09 11:43:14;;;;;;;4.55;3.60;;;30.20;47.80;;;;;;4907413;29;20204;-86
2023/06/09 11:45:40;;;;;;;4.07;3.60;;;30.30;48.30;;;;;;4904805;29;20177;-86
2023/06/09 11:48:06;;;;;;;4.40;3.95;;;30.20;48.40;;;;;;4904131;29;20181;-86
2023/06/09 11:50:44;;;;;;;5.35;3.90;;;30.10;48.50;;;;;;4889812;29;20395;-86
2023/06/09 11:53:15;;;;;;;4.65;4.10;;;30.10;48.60;;;;;;4907000;29;20180;-86
2023/06/09 11:55:50;;;;;;;4.25;3.85;;;30.10;48.30;;;;;;4915862;29;20169;-85
2023/06/09 11:58:16;;;;;;;4.55;4.05;;;30.20;49.00;;;;;;4915834;29;20304;-86
2023/06/09 12:00:44;;;;;;;6.18;4.70;;;30.20;48.90;;;;;;4915612;29;20181;-86
2023/06/09 12:03:12;;;;;;;4.78;4.15;;;30.10;49.00;;;;;;4915949;29;20233;-86
2023/06/09 12:05:37;;;;;;;5.13;4.03;;;30.00;49.30;;;;;;4912406;29;20188;-86
2023/06/09 12:08:10;;;;;;;5.38;4.35;;;30.00;49.70;;;;;;4912452;29;20173;-86
2023/06/09 12:10:36;;;;;;;5.93;4.40;;;30.00;49.70;;;;;;4910519;29;20279;-86
2023/06/09 12:13:02;;;;;;;5.47;4.10;;;29.90;49.90;;;;;;4908894;29;20208;-86
2023/06/09 12:15:28;;;;;;;6.13;4.88;;;29.90;49.90;;;;;;4906112;29;20196;-86
2023/06/09 12:17:58;;;;;;;3.88;3.53;;;29.90;49.70;;;;;;4905746;29;20584;-86
2023/06/09 12:20:32;;;;;;;5.90;4.43;;;29.80;50.00;;;;;;4907002;29;20181;-86
2023/06/09 12:23:07;;;;;;;8.25;4.80;;;29.80;49.90;;;;;;4905926;29;20400;-86
2023/06/09 12:25:35;;;;;;;5.57;4.70;;;29.60;49.50;;;;;;4907817;29;20208;-85
2023/06/09 12:28:22;;;;;;;6.63;5.05;;;29.50;49.90;;;;;;4907683;29;20470;-85
2023/06/09 12:30:55;;;;;;;5.00;4.60;;;29.50;49.90;;;;;;4907219;29;20177;-86
2023/06/09 12:33:26;;;;;;;5.55;4.10;;;29.50;50.10;;;;;;4905390;29;20516;-86
2023/06/09 12:35:54;;;;;;;8.20;5.00;;;29.60;50.00;;;;;;4907221;29;20260;-86
2023/06/09 12:38:24;;;;;;;5.07;4.68;;;29.60;49.30;;;;;;4909379;29;20255;-86
2023/06/09 12:40:56;;;;;;;5.45;4.45;;;29.50;49.80;;;;;;4909917;29;20763;-86
2023/06/09 12:43:23;;;;;;;6.05;4.55;;;29.60;50.00;;;;;;4910705;29;20203;-86
2023/06/09 12:45:54;;;;;;;4.88;4.00;;;29.60;50.40;;;;;;4912570;29;20349;-86
2023/06/09 12:48:20;;;;;;;4.55;4.13;;;29.50;51.00;;;;;;4908446;29;20180;-86
2023/06/09 12:50:46;;;;;;;5.07;4.40;;;29.50;50.40;;;;;;4908188;29;20181;-86
2023/06/09 12:53:13;;;;;;;4.78;4.07;;;29.60;50.60;;;;;;4904602;29;20621;-86
2023/06/09 12:55:41;;;;;;;4.63;4.22;;;29.50;50.70;;;;;;4905186;29;20185;-86